Wetterdaten: Woche 11.01.10 - 17.01.10 (KW2)
Datum Zeit Temp. A. Feuchte A. Luftdruck Regen Wind Richtung Taupunkt Windchill Windben
11.01.2010 00:00 -3,7 C 88 % 1014,4 hPa 0,0 l/m 0,0 km/h N-NO -5,4 C -3,7 C 0,0 km/h
11.01.2010 01:00 -3,6 C 88 % 1014,5 hPa 0,0 l/m 0,0 km/h N-NO -5,3 C -3,6 C 0,0 km/h
11.01.2010 02:00 -3,6 C 89 % 1014,7 hPa 0,0 l/m 0,0 km/h N-NO -5,1 C -3,6 C 0,0 km/h
11.01.2010 03:00 -3,7 C 89 % 1014,6 hPa 0,0 l/m 0,0 km/h N-NO -5,2 C -3,7 C 0,0 km/h
11.01.2010 04:00 -3,6 C 89 % 1014,4 hPa 0,0 l/m 0,0 km/h N-NO -5,1 C -3,6 C 0,0 km/h
11.01.2010 05:00 -3,6 C 89 % 1014,4 hPa 0,0 l/m 0,0 km/h N-NO -5,1 C -3,6 C 0,0 km/h
11.01.2010 06:00 -3,7 C 89 % 1014,3 hPa 0,0 l/m 0,0 km/h N-NO -5,2 C -3,7 C 0,0 km/h
11.01.2010 07:00 -3,7 C 89 % 1014,2 hPa 0,0 l/m 0,0 km/h N-NO -5,2 C -3,7 C 0,0 km/h
11.01.2010 08:00 -3,5 C 90 % 1014,2 hPa 0,0 l/m 0,0 km/h N-NO -4,9 C -3,5 C 0,0 km/h
11.01.2010 09:00 -1,8 C 87 % 1014,4 hPa 0,0 l/m 0,0 km/h N-NO -3,7 C -1,8 C 0,0 km/h
11.01.2010 10:00 -1,2 C 83 % 1014,6 hPa 0,0 l/m 0,0 km/h N-NO -3,7 C -1,2 C 0,0 km/h
11.01.2010 11:00 -1,1 C 81 % 1014,6 hPa 0,0 l/m 0,0 km/h N-NO -3,9 C -1,1 C 0,0 km/h
11.01.2010 12:00 -1,5 C 82 % 1014,4 hPa 0,0 l/m 0,0 km/h N-NO -4,2 C -1,5 C 0,0 km/h
11.01.2010 13:00 -0,8 C 83 % 1014,0 hPa 0,0 l/m 0,0 km/h N-NO -3,3 C -0,8 C 0,0 km/h
11.01.2010 14:00 -1,1 C 83 % 1014,3 hPa 0,0 l/m 0,0 km/h N-NO -3,6 C -1,1 C 0,0 km/h
11.01.2010 15:00 -1,9 C 85 % 1014,8 hPa 0,0 l/m 0,0 km/h N-NO -4,1 C -1,9 C 0,0 km/h
11.01.2010 16:00 -3,0 C 87 % 1014,9 hPa 0,0 l/m 0,0 km/h N-NO -4,9 C -3,0 C 0,0 km/h
11.01.2010 17:00 -3,2 C 89 % 1015,2 hPa 0,0 l/m 0,0 km/h N-NO -4,7 C -3,2 C 0,0 km/h
11.01.2010 18:00 -3,1 C 90 % 1015,4 hPa 0,0 l/m 0,0 km/h N-NO -4,5 C -3,1 C 0,0 km/h
11.01.2010 19:00 -3,1 C 90 % 1015,7 hPa 0,0 l/m 0,0 km/h N-NO -4,5 C -3,1 C 0,0 km/h
11.01.2010 20:00 -3,2 C 91 % 1015,9 hPa 0,0 l/m 0,0 km/h N-NO -4,5 C -3,2 C 0,0 km/h
11.01.2010 21:00 -3,2 C 91 % 1016,1 hPa 0,0 l/m 0,0 km/h N-NO -4,5 C -3,2 C 0,0 km/h
11.01.2010 22:00 -3,3 C 91 % 1016,2 hPa 0,0 l/m 0,0 km/h N-NO -4,6 C -3,3 C 0,0 km/h
11.01.2010 23:00 -3,2 C 92 % 1016,1 hPa 0,0 l/m 0,0 km/h N-NO -4,3 C -3,2 C 0,0 km/h
12.01.2010 00:00 -3,2 C 92 % 1016,1 hPa 0,0 l/m 0,0 km/h N-NO -4,3 C -3,2 C 0,0 km/h
12.01.2010 01:00 -3,2 C 92 % 1016,0 hPa 0,0 l/m 0,0 km/h N-NO -4,3 C -3,2 C 0,0 km/h
12.01.2010 02:00 -3,5 C 91 % 1015,9 hPa 0,0 l/m 0,0 km/h N-NO -4,8 C -3,5 C 0,0 km/h
12.01.2010 03:00 -3,4 C 91 % 1016,0 hPa 0,0 l/m 0,0 km/h N-NO -4,7 C -3,4 C 0,0 km/h
12.01.2010 04:00 -3,4 C 92 % 1015,8 hPa 0,0 l/m 0,0 km/h N-NO -4,5 C -3,4 C 0,0 km/h
12.01.2010 05:00 -3,3 C 92 % 1015,3 hPa 0,0 l/m 0,0 km/h N-NO -4,4 C -3,3 C 0,0 km/h
12.01.2010 06:00 -3,3 C 92 % 1015,2 hPa 0,0 l/m 0,0 km/h N-NO -4,4 C -3,3 C 0,0 km/h
12.01.2010 07:00 -3,2 C 92 % 1014,7 hPa 0,0 l/m 0,0 km/h N-NO -4,3 C -3,2 C 0,0 km/h
12.01.2010 08:00 -3,1 C 92 % 1014,3 hPa 0,0 l/m 0,0 km/h N-NO -4,2 C -3,1 C 0,0 km/h
12.01.2010 09:00 -2,2 C 91 % 1013,7 hPa 0,0 l/m 0,0 km/h NO -3,5 C -2,2 C 0,0 km/h
12.01.2010 10:00 -0,7 C 89 % 1013,1 hPa 0,0 l/m 0,0 km/h N-NO -2,3 C -0,7 C 0,0 km/h
12.01.2010 11:00 1,3 C 83 % 1012,0 hPa 0,0 l/m 0,0 km/h W-SW -1,3 C 1,3 C 0,0 km/h
12.01.2010 12:00 1,6 C 78 % 1010,8 hPa 0,0 l/m 0,0 km/h W -1,8 C 1,6 C 0,0 km/h
12.01.2010 13:00 1,9 C 74 % 1010,0 hPa 0,0 l/m 0,0 km/h NO -2,2 C 1,9 C 0,0 km/h
12.01.2010 14:00 4,5 C 68 % 1009,1 hPa 0,4 l/m 0,0 km/h N -0,9 C 4,5 C 0,0 km/h
12.01.2010 15:00 2,7 C 68 % 1007,9 hPa 0,0 l/m 0,0 km/h W-SW -2,6 C 2,7 C 0,0 km/h
12.01.2010 16:00 -4,4 C 80 % 1007,3 hPa 0,0 l/m 0,0 km/h W-SW -7,3 C -4,4 C 0,0 km/h
12.01.2010 17:00 -7,5 C 86 % 1006,8 hPa 0,0 l/m 0,0 km/h W-SW -9,4 C -7,5 C 0,0 km/h
12.01.2010 18:00 -6,3 C 89 % 1006,4 hPa 0,0 l/m 0,0 km/h W-SW -7,8 C -6,3 C 0,0 km/h
12.01.2010 19:00 -5,5 C 90 % 1006,3 hPa 0,0 l/m 0,0 km/h W-SW -6,9 C -5,5 C 0,0 km/h
12.01.2010 20:00 -6,8 C 90 % 1005,4 hPa 0,0 l/m 0,0 km/h W-SW -8,2 C -6,8 C 0,0 km/h
12.01.2010 21:00 -9,7 C 90 % 1005,4 hPa 0,0 l/m 0,0 km/h W-SW -11,0 C -9,7 C 0,0 km/h
12.01.2010 22:00 -6,8 C 91 % 1005,0 hPa 0,0 l/m 0,0 km/h W-SW -8,0 C -6,8 C 0,0 km/h
12.01.2010 23:00 -5,7 C 91 % 1005,0 hPa 0,0 l/m 0,0 km/h W-SW -6,9 C -5,7 C 0,0 km/h
13.01.2010 00:00 -6,4 C 91 % 1005,3 hPa 0,0 l/m 0,0 km/h W-SW -7,6 C -6,4 C 0,0 km/h
13.01.2010 01:00 -5,7 C 91 % 1004,7 hPa 0,0 l/m 0,0 km/h W-SW -6,9 C -5,7 C 0,0 km/h
13.01.2010 02:00 -4,2 C 92 % 1003,9 hPa 0,0 l/m 0,0 km/h W-SW -5,3 C -4,2 C 0,0 km/h
13.01.2010 03:00 -3,5 C 91 % 1003,1 hPa 0,0 l/m 0,0 km/h W-SW -4,8 C -3,5 C 0,0 km/h
13.01.2010 04:00 -3,6 C 91 % 1003,2 hPa 0,0 l/m 0,0 km/h W-SW -4,8 C -3,6 C 0,0 km/h
13.01.2010 05:00 -2,9 C 91 % 1002,8 hPa 0,0 l/m 0,0 km/h W-SW -4,2 C -2,9 C 0,0 km/h
13.01.2010 06:00 -2,5 C 91 % 1002,9 hPa 0,0 l/m 0,0 km/h W-SW -3,8 C -2,5 C 0,0 km/h
13.01.2010 07:00 -3,0 C 91 % 1003,6 hPa 0,0 l/m 0,0 km/h W-SW -4,3 C -3,0 C 0,0 km/h
13.01.2010 08:00 -2,4 C 92 % 1003,6 hPa 0,0 l/m 0,0 km/h W-SW -3,5 C -2,4 C 0,0 km/h
13.01.2010 09:00 -1,6 C 91 % 1003,9 hPa 0,0 l/m 0,0 km/h W -2,9 C -1,6 C 0,0 km/h
13.01.2010 10:00 0,1 C 90 % 1004,0 hPa 0,0 l/m 0,0 km/h NW -1,3 C 0,1 C 0,0 km/h
13.01.2010 11:00 0,4 C 88 % 1004,1 hPa 0,0 l/m 0,0 km/h N-NW -1,3 C 0,4 C 0,0 km/h
13.01.2010 12:00 1,5 C 86 % 1003,9 hPa 0,0 l/m 0,0 km/h O-SO -0,6 C 1,5 C 0,0 km/h
13.01.2010 13:00 1,9 C 84 % 1003,6 hPa 0,0 l/m 0,0 km/h N -0,5 C 1,9 C 0,0 km/h
13.01.2010 14:00 1,9 C 86 % 1004,0 hPa 0,0 l/m 0,0 km/h N-NO -0,2 C 1,9 C 0,0 km/h
13.01.2010 15:00 1,9 C 88 % 1004,1 hPa 0,0 l/m 0,0 km/h N-NO 0,1 C 1,9 C 0,0 km/h
13.01.2010 16:00 1,9 C 91 % 1004,7 hPa 0,0 l/m 0,0 km/h N-NO 0,6 C 1,9 C 0,0 km/h
13.01.2010 17:00 1,8 C 92 % 1005,3 hPa 0,0 l/m 0,0 km/h N-NO 0,6 C 1,8 C 0,0 km/h
13.01.2010 18:00 1,8 C 93 % 1005,7 hPa 0,0 l/m 1,4 km/h NO 0,8 C 1,8 C 1,4 km/h
13.01.2010 19:00 1,9 C 94 % 1006,3 hPa 0,4 l/m 0,0 km/h NO 1,0 C 1,9 C 0,0 km/h
13.01.2010 20:00 2,2 C 94 % 1006,5 hPa 0,0 l/m 0,0 km/h NO 1,3 C 2,2 C 0,0 km/h
13.01.2010 21:00 1,6 C 94 % 1006,5 hPa 0,0 l/m 0,0 km/h NO 0,7 C 1,6 C 0,0 km/h
13.01.2010 22:00 1,6 C 94 % 1006,4 hPa 0,4 l/m 0,0 km/h NO 0,7 C 1,6 C 0,0 km/h
13.01.2010 23:00 1,2 C 95 % 1006,0 hPa 0,0 l/m 0,0 km/h O-SO 0,5 C 1,2 C 0,0 km/h
14.01.2010 00:00 0,4 C 94 % 1005,8 hPa 0,0 l/m 0,0 km/h O-SO -0,5 C 0,4 C 0,0 km/h
14.01.2010 01:00 -0,1 C 94 % 1005,0 hPa 0,0 l/m 0,0 km/h O -0,9 C -0,1 C 0,0 km/h
14.01.2010 02:00 -0,7 C 94 % 1005,0 hPa 0,0 l/m 0,0 km/h O-SO -1,5 C -0,7 C 0,0 km/h
14.01.2010 03:00 -1,6 C 94 % 1005,2 hPa 0,0 l/m 0,0 km/h O-SO -2,4 C -1,6 C 0,0 km/h
14.01.2010 04:00 -2,4 C 94 % 1005,0 hPa 0,0 l/m 0,0 km/h O-SO -3,2 C -2,4 C 0,0 km/h
14.01.2010 05:00 -1,6 C 94 % 1005,0 hPa 0,0 l/m 0,0 km/h O-SO -2,4 C -1,6 C 0,0 km/h
14.01.2010 06:00 -1,9 C 95 % 1004,5 hPa 0,0 l/m 0,0 km/h O-SO -2,6 C -1,9 C 0,0 km/h
14.01.2010 07:00 -1,4 C 95 % 1004,8 hPa 0,0 l/m 0,0 km/h O-SO -2,1 C -1,4 C 0,0 km/h
14.01.2010 08:00 -1,1 C 95 % 1004,9 hPa 0,0 l/m 0,0 km/h O-SO -1,8 C -1,1 C 0,0 km/h
14.01.2010 09:00 0,1 C 95 % 1005,0 hPa 0,0 l/m 0,0 km/h O-SO -0,6 C 0,1 C 0,0 km/h
14.01.2010 10:00 0,4 C 95 % 1005,3 hPa 0,0 l/m 0,0 km/h W-NW -0,3 C 0,4 C 0,0 km/h
14.01.2010 11:00 1,3 C 95 % 1004,9 hPa 0,0 l/m 0,0 km/h W-SW 0,6 C 1,3 C 0,0 km/h
14.01.2010 12:00 1,1 C 93 % 1004,0 hPa 0,4 l/m 1,4 km/h W-SW 0,1 C 1,1 C 1,4 km/h
14.01.2010 13:00 0,8 C 92 % 1004,0 hPa 0,0 l/m 1,4 km/h NW -0,3 C 0,8 C 1,4 km/h
14.01.2010 14:00 0,2 C 93 % 1004,4 hPa 0,0 l/m 0,0 km/h W-NW -0,8 C 0,2 C 0,0 km/h
14.01.2010 15:00 0,0 C 93 % 1004,9 hPa 0,0 l/m 0,0 km/h W-NW -1,0 C 0,0 C 0,0 km/h
14.01.2010 16:00 -0,4 C 94 % 1005,0 hPa 0,0 l/m 0,0 km/h W-NW -1,2 C -0,4 C 0,0 km/h
14.01.2010 17:00 -0,4 C 94 % 1005,6 hPa 0,0 l/m 0,0 km/h W-NW -1,2 C -0,4 C 0,0 km/h
14.01.2010 18:00 -0,7 C 94 % 1006,3 hPa 0,0 l/m 0,0 km/h W-NW -1,5 C -0,7 C 0,0 km/h
14.01.2010 19:00 -1,1 C 95 % 1007,3 hPa 0,0 l/m 0,0 km/h W-NW -1,8 C -1,1 C 0,0 km/h
14.01.2010 20:00 -1,0 C 95 % 1008,1 hPa 0,0 l/m 0,0 km/h W-NW -1,7 C -1,0 C 0,0 km/h
14.01.2010 21:00 -0,8 C 95 % 1008,9 hPa 0,0 l/m 0,0 km/h W-NW -1,5 C -0,8 C 0,0 km/h
14.01.2010 22:00 -0,7 C 95 % 1009,5 hPa 0,0 l/m 0,0 km/h W-NW -1,4 C -0,7 C 0,0 km/h
14.01.2010 23:00 -0,7 C 95 % 1010,3 hPa 0,0 l/m 0,0 km/h W-NW -1,4 C -0,7 C 0,0 km/h
15.01.2010 00:00 -0,6 C 95 % 1010,7 hPa 0,0 l/m 0,0 km/h W-NW -1,3 C -0,6 C 0,0 km/h
15.01.2010 01:00 -0,5 C 95 % 1011,4 hPa 0,0 l/m 0,0 km/h W-NW -1,2 C -0,5 C 0,0 km/h
15.01.2010 02:00 -0,4 C 95 % 1012,6 hPa 0,0 l/m 0,0 km/h W-NW -1,1 C -0,4 C 0,0 km/h
15.01.2010 03:00 -0,5 C 95 % 1013,5 hPa 0,0 l/m 0,0 km/h W-NW -1,2 C -0,5 C 0,0 km/h
15.01.2010 04:00 -0,5 C 95 % 1014,0 hPa 0,0 l/m 0,0 km/h W-NW -1,2 C -0,5 C 0,0 km/h
15.01.2010 05:00 -0,4 C 95 % 1015,0 hPa 0,0 l/m 0,0 km/h W-NW -1,1 C -0,4 C 0,0 km/h
15.01.2010 06:00 -0,4 C 95 % 1016,1 hPa 0,0 l/m 0,0 km/h W-NW -1,1 C -0,4 C 0,0 km/h
15.01.2010 07:00 -0,4 C 95 % 1017,0 hPa 0,0 l/m 0,0 km/h W-NW -1,1 C -0,4 C 0,0 km/h
15.01.2010 08:00 -0,1 C 95 % 1018,1 hPa 0,0 l/m 0,0 km/h W-NW -0,8 C -0,1 C 0,0 km/h
15.01.2010 09:00 0,9 C 95 % 1018,6 hPa 0,0 l/m 0,0 km/h O-NO 0,2 C 0,9 C 0,0 km/h
15.01.2010 10:00 2,8 C 93 % 1019,5 hPa 0,0 l/m 0,0 km/h O-NO 1,8 C 2,8 C 0,0 km/h
15.01.2010 11:00 3,8 C 88 % 1019,7 hPa 0,0 l/m 0,0 km/h W-NW 2,0 C 3,8 C 0,0 km/h
15.01.2010 12:00 3,6 C 85 % 1020,2 hPa 0,4 l/m 0,0 km/h W 1,3 C 3,6 C 0,0 km/h
15.01.2010 13:00 3,1 C 87 % 1021,0 hPa 0,0 l/m 0,0 km/h W-NW 1,2 C 3,1 C 0,0 km/h
15.01.2010 14:00 2,9 C 87 % 1021,2 hPa 0,0 l/m 0,0 km/h W-NW 1,0 C 2,9 C 0,0 km/h
15.01.2010 15:00 2,5 C 88 % 1021,8 hPa 0,0 l/m 0,0 km/h W-NW 0,7 C 2,5 C 0,0 km/h
15.01.2010 16:00 1,4 C 90 % 1022,4 hPa 0,0 l/m 0,0 km/h W-SW -0,1 C 1,4 C 0,0 km/h
15.01.2010 17:00 0,6 C 91 % 1022,9 hPa 0,0 l/m 0,0 km/h W-SW -0,7 C 0,6 C 0,0 km/h
15.01.2010 18:00 0,5 C 92 % 1023,4 hPa 0,0 l/m 0,0 km/h W-SW -0,6 C 0,5 C 0,0 km/h
15.01.2010 19:00 0,4 C 93 % 1023,5 hPa 0,0 l/m 0,0 km/h W-SW -0,6 C 0,4 C 0,0 km/h
15.01.2010 20:00 0,4 C 93 % 1023,7 hPa 0,0 l/m 0,0 km/h W-SW -0,6 C 0,4 C 0,0 km/h
15.01.2010 21:00 0,3 C 93 % 1023,5 hPa 0,0 l/m 0,0 km/h W-SW -0,7 C 0,3 C 0,0 km/h
15.01.2010 22:00 0,3 C 94 % 1023,5 hPa 0,0 l/m 0,0 km/h SW -0,5 C 0,3 C 0,0 km/h
15.01.2010 23:00 0,5 C 94 % 1023,8 hPa 0,0 l/m 0,0 km/h NO -0,4 C 0,5 C 0,0 km/h
16.01.2010 00:00 0,6 C 93 % 1023,3 hPa 0,0 l/m 0,0 km/h NO -0,4 C 0,6 C 0,0 km/h
16.01.2010 01:00 0,5 C 93 % 1022,8 hPa 0,0 l/m 0,0 km/h O-NO -0,5 C 0,5 C 0,0 km/h
16.01.2010 02:00 0,4 C 93 % 1022,6 hPa 0,0 l/m 0,0 km/h NO -0,6 C 0,4 C 0,0 km/h
16.01.2010 03:00 0,3 C 92 % 1022,5 hPa 0,0 l/m 0,0 km/h NO -0,8 C 0,3 C 0,0 km/h
16.01.2010 04:00 0,2 C 91 % 1021,9 hPa 0,0 l/m 0,0 km/h O-NO -1,1 C 0,2 C 0,0 km/h
16.01.2010 05:00 -0,1 C 92 % 1021,1 hPa 0,0 l/m 0,0 km/h O-SO -1,2 C -0,1 C 0,0 km/h
16.01.2010 06:00 -0,1 C 91 % 1020,6 hPa 0,0 l/m 0,0 km/h NO -1,4 C -0,1 C 0,0 km/h
16.01.2010 07:00 -0,2 C 91 % 1020,0 hPa 0,0 l/m 0,0 km/h NO -1,5 C -0,2 C 0,0 km/h
16.01.2010 08:00 -0,4 C 91 % 1019,8 hPa 0,0 l/m 0,0 km/h N-NO -1,7 C -0,4 C 0,0 km/h
16.01.2010 09:00 0,1 C 90 % 1018,6 hPa 0,0 l/m 0,0 km/h O-SO -1,3 C 0,1 C 0,0 km/h
16.01.2010 10:00 0,9 C 86 % 1019,0 hPa 0,0 l/m 0,4 km/h S-SO -1,2 C 0,9 C 0,4 km/h
16.01.2010 11:00 1,0 C 85 % 1018,0 hPa 0,0 l/m 0,0 km/h SO -1,2 C 1,0 C 0,0 km/h
16.01.2010 12:00 1,6 C 84 % 1017,5 hPa 0,0 l/m 0,0 km/h NO -0,8 C 1,6 C 0,0 km/h
16.01.2010 13:00 2,8 C 81 % 1016,3 hPa 0,0 l/m 0,0 km/h W-SW -0,1 C 2,8 C 0,0 km/h
16.01.2010 14:00 2,3 C 80 % 1014,5 hPa 0,0 l/m 0,0 km/h W -0,8 C 2,3 C 0,0 km/h
16.01.2010 15:00 0,9 C 84 % 1015,0 hPa 0,0 l/m 0,0 km/h O-SO -1,5 C 0,9 C 0,0 km/h
16.01.2010 16:00 -0,5 C 87 % 1014,6 hPa 0,0 l/m 0,0 km/h S-SO -2,4 C -0,5 C 0,0 km/h
16.01.2010 17:00 -1,1 C 90 % 1014,4 hPa 0,0 l/m 0,0 km/h SO -2,5 C -1,1 C 0,0 km/h
16.01.2010 18:00 -0,7 C 91 % 1013,9 hPa 0,0 l/m 0,0 km/h O-NO -2,0 C -0,7 C 0,0 km/h
16.01.2010 19:00 0,1 C 91 % 1012,9 hPa 0,0 l/m 0,0 km/h N -1,2 C 0,1 C 0,0 km/h
16.01.2010 20:00 0,6 C 91 % 1012,8 hPa 0,0 l/m 0,0 km/h N-NO -0,7 C 0,6 C 0,0 km/h
16.01.2010 21:00 0,8 C 91 % 1012,2 hPa 0,4 l/m 2,9 km/h O-NO -0,5 C 0,8 C 2,9 km/h
16.01.2010 22:00 1,4 C 93 % 1012,1 hPa 1,4 l/m 0,0 km/h N-NO 0,4 C 1,4 C 0,0 km/h
16.01.2010 23:00 4,6 C 93 % 1012,0 hPa 0,4 l/m 0,0 km/h N 3,6 C 4,6 C 0,0 km/h
17.01.2010 00:00 3,5 C 93 % 1012,6 hPa 0,4 l/m 0,7 km/h N-NO 2,5 C 3,5 C 0,7 km/h
17.01.2010 01:00 3,9 C 93 % 1012,1 hPa 0,0 l/m 1,1 km/h O 2,9 C 3,9 C 1,1 km/h
17.01.2010 02:00 3,8 C 93 % 1011,9 hPa 0,0 l/m 0,0 km/h NO 2,8 C 3,8 C 0,0 km/h
17.01.2010 03:00 3,2 C 93 % 1011,3 hPa 0,0 l/m 0,0 km/h S-SW 2,2 C 3,2 C 0,0 km/h
17.01.2010 04:00 6,3 C 88 % 1011,4 hPa 0,0 l/m 4,0 km/h S-SW 4,5 C 6,3 C 4,0 km/h
17.01.2010 05:00 7,1 C 82 % 1011,5 hPa 0,4 l/m 22,0 km/h S-SW 4,2 C -1,2 C 22,0 km/h
17.01.2010 06:00 6,9 C 82 % 1011,4 hPa 0,0 l/m 16,9 km/h S-SW 4,0 C 0,5 C 16,9 km/h
17.01.2010 07:00 7,0 C 83 % 1012,0 hPa 0,0 l/m 24,8 km/h SW 4,3 C -2,2 C 24,8 km/h
17.01.2010 08:00 7,3 C 84 % 1013,0 hPa 0,0 l/m 22,7 km/h W 4,8 C -1,1 C 22,7 km/h
17.01.2010 09:00 6,9 C 83 % 1014,1 hPa 0,0 l/m 24,5 km/h W-SW 4,2 C -2,2 C 24,5 km/h
17.01.2010 10:00 6,8 C 84 % 1015,2 hPa 0,0 l/m 28,4 km/h S-SW 4,3 C -3,4 C 28,4 km/h
17.01.2010 11:00 6,9 C 83 % 1015,9 hPa 0,0 l/m 15,5 km/h S 4,2 C 1,1 C 15,5 km/h
17.01.2010 12:00 6,6 C 83 % 1016,9 hPa 0,0 l/m 15,8 km/h SW 3,9 C 0,6 C 15,8 km/h
17.01.2010 13:00 6,4 C 83 % 1017,7 hPa 0,0 l/m 22,7 km/h SW 3,7 C -2,3 C 22,7 km/h
17.01.2010 14:00 6,3 C 82 % 1018,9 hPa 0,0 l/m 14,8 km/h W-SW 3,5 C 0,7 C 14,8 km/h
17.01.2010 15:00 6,8 C 82 % 1019,8 hPa 0,0 l/m 10,1 km/h SW 3,9 C 4,0 C 10,1 km/h
17.01.2010 16:00 6,2 C 79 % 1020,7 hPa 0,0 l/m 13,7 km/h W-SW 2,8 C 1,2 C 13,7 km/h
17.01.2010 17:00 5,5 C 82 % 1021,5 hPa 0,0 l/m 0,0 km/h S-SW 2,7 C 5,5 C 0,0 km/h
17.01.2010 18:00 5,6 C 82 % 1022,1 hPa 0,0 l/m 11,9 km/h W-SW 2,8 C 1,5 C 11,9 km/h
17.01.2010 19:00 4,5 C 83 % 1022,8 hPa 0,0 l/m 0,0 km/h N 1,9 C 4,5 C 0,0 km/h
17.01.2010 20:00 3,8 C 86 % 1023,2 hPa 0,0 l/m 0,0 km/h N-NO 1,7 C 3,8 C 0,0 km/h
17.01.2010 21:00 3,5 C 87 % 1023,4 hPa 0,0 l/m 0,7 km/h N-NO 1,5 C 3,5 C 0,7 km/h
17.01.2010 22:00 3,2 C 87 % 1023,5 hPa 0,0 l/m 0,0 km/h W-SW 1,2 C 3,2 C 0,0 km/h
17.01.2010 23:00 4,9 C 83 % 1024,0 hPa 0,0 l/m 4,3 km/h N-NO 2,3 C 4,9 C 4,3 km/h
Min-Datum _ 12.01.10 12.01.10 13.01.10 - 11.01.10 - 12.01.10 12.01.10 11.01.10
_ Min-Zeit 21:53 14:53 05:53 - 00:53 - 21:53 21:53 00:53
Minimum _ -9,7 C 68 % 1002,8 hPa - 0,0 km/h - -11,0 C -9,7 C 0,0 km/h
Max-Datum _ 17.01.10 13.01.10 17.01.10 16.01.10 17.01.10 - 17.01.10 17.01.10 17.01.10
_ Max-Zeit 08:53 23:53 23:53 22:53 10:53 - 08:53 04:53 10:53
Maximum _ 7,3 C 95 % 1024,0 hPa 1,4 l/m 28,4 km/h
S-SW
- 4,8 C 6,3 C 28,4 km/h
S-SW
Durchschnitt _ 0,0 C 89 % 1012,8 hPa #4,6 l/m 1,6 km/h N-NO -1,5 C -0,5 C 1,6 km/h